Hlavní strana
METAR-TAF:

METAR-TAF

Letiště :

Hongkong, Čína

Mezinárodní letiště Hongkong

zeměpisná šířka: 22-19N, zeměpisná délka: 113-55E, výška: 9 m

Aktuální stav počasí

Zpráva byla vytvořena před 23 minutami, v 07:00 UTC
Východojihovýchodní vítr 11 kt, proměnlivý mezi východním a jihojihovýchodním
Teplota 23°C
Vlhkost vzduchu 61%
Tlak 1014 hPa
Viditelnost 10 km a více
Skoro jasno ve výšce 3500 ft

METAR: VHHH 200700Z 11011KT 090V150 9999 FEW035 23/15 Q1014 NOSIG

Čas: 15:23 (07:23 UTC)

Předpověď počasí

Zpráva byla vytvořena před 2 hodinami a 23 minutami, v 05:00 UTC
Předpověď platná od 20 v 06 UTC do 21 v 12 UTC
Východní vítr 10 kt
Viditelnost: 8000 m
Skoro jasno ve výšce 2500 ft

TAF: VHHH 200500Z 2006/2112 09010KT 8000 FEW025 TX23/2007Z TX22/2106Z TN19/2023Z

Stav a předpovědi počasí z více než 4 000 letišť (zprávy METAR a TAF).

Červené a žluté tečky na mapě představují dostupné meteorologické stanice.

Když kurzor umístíte na tečku, zobrazí se název stanice.

Pak kliknutím zobrazíte stav a předpověď počasí.

Chcete-li změnit mapu, kliknutím na zelené tlačítko se znaménkem +mapu přiblížíte, kliknutím na zelené tlačítko se znaménkem – mapu oddálíte a kliknutím na zelené šipky přejdete na sousední mapy.


METAR-TAF: